x

Tyndall Afb Tower C (n4), Fl (sgof1) Weather Station

11:00am - Mon 20th Nov 2017 All times are CST. -6 hours from GMT.

  • Wind
    16mph, 18mph gusts
  • Air Temp 58°f
  • Sea Pressure 1022.7mb
  • Tyndall Afb Tower C (n4), Fl
  • Tyndall Afb Tower C (n4), Fl

More Historic Weather Station data

Upgrade to MSW Pro to gain access to the past 30 days of data for over 8000 Wavebouys and Weather Stations around the globe.

Join

Comparision Forecast

View Surf forecast
   
Mon 11/20 11:00am 16 18 mph 1022.7mb 58f
10:00am 18 21 mph 1023.3mb 57f
9:00am 16 20 mph 1023.4mb 56f
8:00am 17 21 mph 1023mb 55f
7:00am 21 24 mph 1022.2mb 55f
6:00am 22 23 mph 1021.7mb 54f
5:00am 21 28 mph 1021.5mb 53f
4:00am 25 26 mph 1021mb 53f
3:00am 28 30 mph 1020.8mb 53f
2:00am 26 29 mph 1020.8mb 55f
1:00am 24 28 mph 1020.7mb 56f
12:00am 26 30 mph 1020.3mb 57f
Sun 11/19 11:00pm 29 30 mph 1020.2mb 57f
10:00pm 26 29 mph 1020.2mb 59f
9:00pm 26 30 mph 1019.5mb 60f
8:00pm 26 28 mph 1018.7mb 61f
7:00pm 24 26 mph 1018.1mb 62f
6:00pm 21 23 mph 1017.3mb 63f
5:00pm 21 24 mph 1016.4mb 64f
4:00pm 17 20 mph 1015.7mb 64f
3:00pm 16 17 mph 1015.2mb 64f
2:00pm 14 16 mph 1015.1mb 63f
1:00pm 18 20 mph 1015.2mb 62f
12:00pm 20 21 mph 1015.7mb 61f
11:00am 21 23 mph 1016.3mb 60f
10:00am 23 24 mph 1016.3mb 59f
9:00am 22 25 mph 1016.2mb 59f
8:00am 23 26 mph 1015.3mb 59f
7:00am 28 31 mph 1014mb 60f
6:00am 29 31 mph 1012.9mb 61f
5:00am 29 31 mph 1011.8mb 65f
4:00am 24 26 mph 1011mb 68f
3:00am 20 21 mph 1011.2mb 74f
2:00am 23 25 mph 1011.8mb 73f
1:00am 25 26 mph 1012.1mb 73f
12:00am 25 26 mph 1012.4mb 73f
Sat 11/18 11:00pm 24 26 mph 1013mb 73f
10:00pm 23 25 mph 1013.5mb 73f
9:00pm 22 23 mph 1013.6mb 73f
8:00pm 20 22 mph 1014.1mb 73f
7:00pm 18 20 mph 1014.2mb 72f
6:00pm 18 20 mph 1013.8mb 72f
5:00pm 16 17 mph 1013.8mb 72f
4:00pm 15 16 mph 1013.9mb 72f
3:00pm 11 13 mph 1014.2mb 72f
2:00pm 13 15 mph 1014.3mb 72f
1:00pm 10 11 mph 1014.9mb 71f
12:00pm 11 13 mph 1015.9mb 71f
11:00am 10 11 mph 1016.9mb 71f
10:00am 9 10 mph 1017.6mb 70f
9:00am 8 9 mph 1017.8mb 70f
8:00am 7 8 mph 1017.5mb 69f
7:00am 6 7 mph 1017.5mb 69f
6:00am 6 7 mph 1017.4mb 68f
5:00am 8 9 mph 1017mb 67f
4:00am 10 11 mph 1016.8mb 66f
3:00am 6 7 mph 1017.2mb 68f
2:00am 6 8 mph 1017.3mb 68f
1:00am 6 7 mph 1017.6mb 68f
12:00am 5 5 mph 1018.3mb 69f
Fri 11/17 11:00pm 6 8 mph 1018.5mb 69f
10:00pm 8 9 mph 1019.1mb 69f
9:00pm 5 5 mph 1019.5mb 68f
8:00pm 6 7 mph 1019.4mb 68f
7:00pm 5 7 mph 1019.3mb 68f
6:00pm 8 9 mph 1019.2mb 67f
5:00pm 9 10 mph 1019mb 67f
4:00pm 7 8 mph 1018.9mb 67f
3:00pm 9 10 mph 1018.8mb 67f
2:00pm 8 9 mph 1018.8mb 67f
1:00pm 6 7 mph 1019.4mb 66f
12:00pm 8 9 mph 1020mb 66f
11:00am 9 10 mph 1021mb 65f
10:00am 8 10 mph 1021.6mb 66f
9:00am 7 8 mph 1021.8mb 66f
8:00am 9 10 mph 1021.1mb 66f
7:00am 11 13 mph 1020.7mb 65f
6:00am 14 15 mph 1020.3mb 64f
5:00am 15 16 mph 1019.8mb 65f
4:00am 16 17 mph 1019.5mb 65f
3:00am 16 17 mph 1019.7mb 65f
2:00am 17 18 mph 1019.9mb 65f
1:00am 17 20 mph 1019.9mb 66f
12:00am 14 14 mph 1019.6mb 68f
Thu 11/16 11:00pm 13 15 mph 1019.7mb 69f
10:00pm 13 14 mph 1020.1mb 68f
9:00pm 9 10 mph 1020.1mb 68f
8:00pm 8 9 mph 1019.7mb 69f
7:00pm 6 7 mph 1019.6mb 68f